createdAt,value
2018-03-08T00:01:11.485Z,5.50
2018-03-08T00:03:37.981Z,5.60
2018-03-08T00:06:04.513Z,5.60
2018-03-08T00:08:31.042Z,5.70
2018-03-08T00:10:57.615Z,5.60
2018-03-08T00:13:24.113Z,5.60
2018-03-08T00:15:50.670Z,5.60
2018-03-08T00:18:17.170Z,5.60
2018-03-08T00:20:43.720Z,5.60
2018-03-08T00:23:10.239Z,5.70
2018-03-08T00:25:36.763Z,5.70
2018-03-08T00:28:03.258Z,5.60
2018-03-08T00:30:30.501Z,5.60
2018-03-08T00:32:57.101Z,5.60
2018-03-08T00:35:23.553Z,5.60
2018-03-08T00:37:50.063Z,5.60
2018-03-08T00:40:16.566Z,5.40
2018-03-08T00:42:43.088Z,5.50
2018-03-08T00:45:09.597Z,5.50
2018-03-08T00:47:36.070Z,5.40
2018-03-08T00:50:02.586Z,5.40
2018-03-08T00:52:29.838Z,5.40
2018-03-08T00:54:57.118Z,5.40
2018-03-08T00:57:24.357Z,5.40
2018-03-08T00:59:51.619Z,5.30
2018-03-08T01:02:18.110Z,5.30
2018-03-08T01:04:44.605Z,5.40
2018-03-08T01:07:11.125Z,5.30
2018-03-08T01:09:37.634Z,5.40
2018-03-08T01:12:04.119Z,5.40
2018-03-08T01:14:30.718Z,5.40
2018-03-08T01:16:57.210Z,5.40
2018-03-08T01:19:23.786Z,5.30
2018-03-08T01:21:50.314Z,5.30
2018-03-08T01:24:17.608Z,5.30
2018-03-08T01:26:44.104Z,5.30
2018-03-08T01:29:10.616Z,5.30
2018-03-08T01:31:37.140Z,5.40
2018-03-08T01:34:03.667Z,5.40
2018-03-08T01:36:30.172Z,5.40
2018-03-08T01:38:56.660Z,5.30
2018-03-08T01:41:23.206Z,5.30
2018-03-08T01:43:49.692Z,5.30
2018-03-08T01:46:16.181Z,5.30
2018-03-08T01:48:42.719Z,5.30
2018-03-08T01:51:09.267Z,5.30
2018-03-08T01:53:36.545Z,5.20
2018-03-08T01:56:03.053Z,5.20
2018-03-08T01:58:30.857Z,5.20
2018-03-08T02:00:58.165Z,5.20
2018-03-08T02:03:25.553Z,5.20
2018-03-08T02:05:52.074Z,5.10
2018-03-08T02:08:19.344Z,5.10
2018-03-08T02:10:45.912Z,5.10
2018-03-08T02:13:12.433Z,5.20
2018-03-08T02:15:38.941Z,5.20
2018-03-08T02:18:05.433Z,5.10
2018-03-08T02:20:31.914Z,5.10
2018-03-08T02:22:58.440Z,5.10
2018-03-08T02:25:24.984Z,5.10
2018-03-08T02:27:51.476Z,5.10
2018-03-08T02:30:17.964Z,5.10
2018-03-08T02:32:44.449Z,5.10
2018-03-08T02:35:10.966Z,5.10
2018-03-08T02:37:37.460Z,5.10
2018-03-08T02:40:03.975Z,5.20
2018-03-08T02:42:30.476Z,5.20
2018-03-08T02:44:57.071Z,5.30
2018-03-08T02:47:23.598Z,5.20
2018-03-08T02:49:50.085Z,5.20
2018-03-08T02:52:16.602Z,5.20
2018-03-08T02:54:43.093Z,5.20
2018-03-08T02:57:10.306Z,5.30
2018-03-08T02:59:37.535Z,5.30
2018-03-08T03:02:04.037Z,5.30
2018-03-08T03:04:30.610Z,5.30
2018-03-08T03:06:57.841Z,5.40
2018-03-08T03:09:24.317Z,5.40
2018-03-08T03:11:50.837Z,5.50
2018-03-08T03:14:17.332Z,5.50
2018-03-08T03:16:43.830Z,5.50
2018-03-08T03:19:11.080Z,5.40
2018-03-08T03:21:38.368Z,5.30
2018-03-08T03:24:04.873Z,5.30
2018-03-08T03:26:31.395Z,5.30
2018-03-08T03:28:57.892Z,5.20
2018-03-08T03:31:24.392Z,5.20
2018-03-08T03:33:50.889Z,5.10
2018-03-08T03:36:17.436Z,5.00
2018-03-08T03:38:43.949Z,4.90
2018-03-08T03:41:10.445Z,4.80
2018-03-08T03:43:37.693Z,4.80
2018-03-08T03:46:04.933Z,4.70
2018-03-08T03:48:31.409Z,4.70
2018-03-08T03:50:57.914Z,4.60
2018-03-08T03:53:24.412Z,4.60
2018-03-08T03:55:51.641Z,4.60
2018-03-08T03:58:18.147Z,4.60
2018-03-08T04:00:44.684Z,4.60
2018-03-08T04:03:11.910Z,4.60
2018-03-08T04:05:38.459Z,4.60
2018-03-08T04:08:05.797Z,4.50
2018-03-08T04:10:32.278Z,4.50
2018-03-08T04:12:58.772Z,4.50
2018-03-08T04:15:25.341Z,4.50
2018-03-08T04:17:51.838Z,4.50
2018-03-08T04:20:18.345Z,4.60
2018-03-08T04:22:44.827Z,4.60
2018-03-08T04:25:12.117Z,4.50
2018-03-08T04:27:38.635Z,4.50
2018-03-08T04:30:05.901Z,4.40
2018-03-08T04:32:32.408Z,4.40
2018-03-08T04:34:59.059Z,4.40
2018-03-08T04:37:25.568Z,4.30
2018-03-08T04:39:52.850Z,4.10
2018-03-08T04:42:19.393Z,4.10
2018-03-08T04:44:45.921Z,4.20
2018-03-08T04:47:12.442Z,4.20
2018-03-08T04:49:38.982Z,4.10
2018-03-08T04:52:05.500Z,4.10
2018-03-08T04:54:31.994Z,4.10
2018-03-08T04:56:58.700Z,4.00
2018-03-08T04:59:25.222Z,4.00
2018-03-08T05:01:51.796Z,4.00
2018-03-08T05:04:18.361Z,4.00
2018-03-08T05:06:44.907Z,4.00
2018-03-08T05:09:11.426Z,3.90
2018-03-08T05:11:38.662Z,3.70
2018-03-08T05:14:05.141Z,3.70
2018-03-08T05:16:32.376Z,3.40
2018-03-08T05:18:58.879Z,3.40
2018-03-08T05:21:25.384Z,3.40
2018-03-08T05:23:51.854Z,3.30
2018-03-08T05:26:18.363Z,3.40
2018-03-08T05:28:45.613Z,3.30
2018-03-08T05:31:12.170Z,3.30
2018-03-08T05:33:38.671Z,3.40
2018-03-08T05:36:05.160Z,3.30
2018-03-08T05:38:31.694Z,3.30
2018-03-08T05:40:58.177Z,3.30
2018-03-08T05:43:25.409Z,3.20
2018-03-08T05:45:51.892Z,3.20
2018-03-08T05:48:18.420Z,3.00
2018-03-08T05:50:44.956Z,2.70
2018-03-08T05:53:11.457Z,2.60
2018-03-08T05:55:37.974Z,2.60
2018-03-08T05:58:04.480Z,2.70
2018-03-08T06:00:31.043Z,2.60
2018-03-08T06:02:57.595Z,2.70
2018-03-08T06:05:24.109Z,2.60
2018-03-08T06:07:50.587Z,2.70
2018-03-08T06:10:17.079Z,2.80
2018-03-08T06:12:43.568Z,2.70
2018-03-08T06:15:10.122Z,2.70
2018-03-08T06:17:36.582Z,2.70
2018-03-08T06:20:03.074Z,2.70
2018-03-08T06:22:29.681Z,2.80
2018-03-08T06:24:56.189Z,2.80
2018-03-08T06:27:22.705Z,2.90
2018-03-08T06:29:49.219Z,2.80
2018-03-08T06:32:15.852Z,2.90
2018-03-08T06:34:42.328Z,2.80
2018-03-08T06:37:09.599Z,2.80
2018-03-08T06:39:36.131Z,2.80
2018-03-08T06:42:02.615Z,2.80
2018-03-08T06:44:29.116Z,2.80
2018-03-08T06:46:56.428Z,2.70
2018-03-08T06:49:22.951Z,2.70
2018-03-08T06:51:49.434Z,2.80
2018-03-08T06:54:16.686Z,2.90
2018-03-08T06:56:43.155Z,2.90
2018-03-08T06:59:09.646Z,3.00
2018-03-08T07:01:36.149Z,3.00
2018-03-08T07:04:02.663Z,3.10
2018-03-08T07:06:29.210Z,3.20
2018-03-08T07:08:55.725Z,3.20
2018-03-08T07:11:22.256Z,3.20
2018-03-08T07:13:48.772Z,3.20
2018-03-08T07:16:16.014Z,3.30
2018-03-08T07:18:42.527Z,3.20
2018-03-08T07:21:09.023Z,3.40
2018-03-08T07:23:35.564Z,3.50
2018-03-08T07:26:02.090Z,3.60
2018-03-08T07:28:28.585Z,3.70
2018-03-08T07:30:55.121Z,3.80
2018-03-08T07:33:21.657Z,4.10
2018-03-08T07:35:48.173Z,4.40
2018-03-08T07:38:14.667Z,4.60
2018-03-08T07:40:41.187Z,4.90
2018-03-08T07:43:08.468Z,6.20
2018-03-08T07:45:34.999Z,6.10
2018-03-08T07:48:01.533Z,6.70
2018-03-08T07:50:28.045Z,7.00
2018-03-08T07:52:54.802Z,7.40
2018-03-08T07:55:22.015Z,8.50
2018-03-08T07:57:48.514Z,8.50
2018-03-08T08:00:15.104Z,9.50
2018-03-08T08:02:42.342Z,10.50
2018-03-08T08:05:20.902Z,10.40
2018-03-08T08:07:59.677Z,11.00
2018-03-08T08:10:26.217Z,10.70
2018-03-08T08:12:52.730Z,11.20
2018-03-08T08:15:19.226Z,10.80
2018-03-08T08:17:45.735Z,12.70
2018-03-08T08:20:12.252Z,10.90
2018-03-08T08:22:38.786Z,12.40
2018-03-08T08:25:05.348Z,13.50
2018-03-08T08:27:32.600Z,13.30
2018-03-08T08:29:59.090Z,13.30
2018-03-08T08:32:25.592Z,13.40
2018-03-08T08:34:52.112Z,12.90
2018-03-08T08:37:18.658Z,12.80
2018-03-08T08:39:45.155Z,12.70
2018-03-08T08:42:12.117Z,13.50
2018-03-08T08:44:39.372Z,14.50
2018-03-08T08:47:06.660Z,13.10
2018-03-08T08:49:33.252Z,13.00
2018-03-08T08:51:59.786Z,13.20
2018-03-08T08:54:26.300Z,13.80
2018-03-08T08:56:53.548Z,15.30
2018-03-08T08:59:20.092Z,15.30
2018-03-08T09:01:46.586Z,14.20
2018-03-08T09:04:13.104Z,14.40
2018-03-08T09:06:40.310Z,13.40
2018-03-08T09:09:06.915Z,13.40
2018-03-08T09:11:33.429Z,13.40
2018-03-08T09:14:00.660Z,14.50
2018-03-08T09:16:27.904Z,14.80
2018-03-08T09:18:54.398Z,14.80
2018-03-08T09:21:20.996Z,14.50
2018-03-08T09:23:47.526Z,14.50
2018-03-08T09:26:14.090Z,14.00
2018-03-08T09:28:40.586Z,14.00
2018-03-08T09:31:07.080Z,13.70
2018-03-08T09:33:33.616Z,14.40
2018-03-08T09:36:00.094Z,14.80
2018-03-08T09:38:26.592Z,15.70
2018-03-08T09:40:53.076Z,15.90
2018-03-08T09:43:20.310Z,16.80
2018-03-08T09:45:46.785Z,16.80
2018-03-08T09:48:13.310Z,16.20
2018-03-08T09:50:39.798Z,15.70
2018-03-08T09:53:06.306Z,16.00
2018-03-08T09:55:32.790Z,16.00
2018-03-08T09:57:59.393Z,16.80
2018-03-08T10:00:26.633Z,17.60
2018-03-08T10:02:53.146Z,17.60
2018-03-08T10:05:19.690Z,17.40
2018-03-08T10:07:46.152Z,17.10
2018-03-08T10:10:12.692Z,17.60
2018-03-08T10:12:39.268Z,17.90
2018-03-08T10:15:07.251Z,16.30
2018-03-08T10:17:33.744Z,16.30
2018-03-08T10:20:00.242Z,16.20
2018-03-08T10:22:26.861Z,16.80
2018-03-08T10:24:53.373Z,17.90
2018-03-08T10:27:20.678Z,18.10
2018-03-08T10:29:47.230Z,18.10
2018-03-08T10:32:13.757Z,18.10
2018-03-08T10:34:40.262Z,18.60
2018-03-08T10:37:06.754Z,18.40
2018-03-08T10:39:33.358Z,18.60
2018-03-08T10:41:59.859Z,18.70
2018-03-08T10:44:26.376Z,18.70
2018-03-08T10:46:52.890Z,18.60
2018-03-08T10:49:19.387Z,18.70
2018-03-08T10:51:45.877Z,18.40
2018-03-08T10:54:12.372Z,18.00
2018-03-08T10:56:38.877Z,18.70
2018-03-08T10:59:05.433Z,19.50
2018-03-08T11:01:32.739Z,19.40
2018-03-08T11:04:05.195Z,18.50
2018-03-08T11:06:31.710Z,18.10
2018-03-08T11:08:58.212Z,17.90
2018-03-08T11:11:24.740Z,18.30
2018-03-08T11:13:51.979Z,18.70
2018-03-08T11:16:19.192Z,19.40
2018-03-08T11:18:45.702Z,19.40
2018-03-08T11:21:12.216Z,18.20
2018-03-08T11:23:38.728Z,19.00
2018-03-08T11:26:05.217Z,19.60
2018-03-08T11:28:31.743Z,19.60
2018-03-08T11:30:58.283Z,19.30
2018-03-08T11:33:24.796Z,19.50
2018-03-08T11:35:51.331Z,19.30
2018-03-08T11:38:17.842Z,19.90
2018-03-08T11:40:44.365Z,19.50
2018-03-08T11:43:10.858Z,19.30
2018-03-08T11:45:37.371Z,18.70
2018-03-08T11:48:04.632Z,18.50
2018-03-08T11:50:31.133Z,18.50
2018-03-08T11:52:57.703Z,18.10
2018-03-08T11:55:24.210Z,17.90
2018-03-08T11:57:50.708Z,17.90
2018-03-08T12:00:17.256Z,18.30
2018-03-08T12:02:43.752Z,18.60
2018-03-08T12:05:10.247Z,19.20
2018-03-08T12:07:36.730Z,19.50
2018-03-08T12:10:03.206Z,19.70
2018-03-08T12:12:29.729Z,19.40
2018-03-08T12:14:56.202Z,19.80
2018-03-08T12:17:24.267Z,19.20
2018-03-08T12:19:51.521Z,18.70
2018-03-08T12:22:18.796Z,19.20
2018-03-08T12:24:45.296Z,19.20
2018-03-08T12:27:11.809Z,19.50
2018-03-08T12:29:39.099Z,18.80
2018-03-08T12:32:06.329Z,19.20
2018-03-08T12:34:32.848Z,19.20
2018-03-08T12:36:59.390Z,19.50
2018-03-08T12:39:26.672Z,19.60
2018-03-08T12:41:53.921Z,19.30
2018-03-08T12:44:20.427Z,19.30
2018-03-08T12:46:46.933Z,19.30
2018-03-08T12:49:13.476Z,19.20
2018-03-08T12:51:39.965Z,18.60
2018-03-08T12:54:06.456Z,18.00
2018-03-08T12:56:33.032Z,18.00
2018-03-08T12:58:59.616Z,18.50
2018-03-08T13:01:26.185Z,18.40
2018-03-08T13:03:52.668Z,19.00
2018-03-08T13:06:19.963Z,19.40
2018-03-08T13:08:46.484Z,19.40
2018-03-08T13:11:13.006Z,19.50
2018-03-08T13:13:39.665Z,19.40
2018-03-08T13:16:06.176Z,18.70
2018-03-08T13:18:32.651Z,17.10
2018-03-08T13:20:59.215Z,16.30
2018-03-08T13:23:25.713Z,16.20
2018-03-08T13:25:52.240Z,16.30
2018-03-08T13:28:18.750Z,16.80
2018-03-08T13:30:45.300Z,18.20
2018-03-08T13:33:11.838Z,18.70
2018-03-08T13:35:38.315Z,17.40
2018-03-08T13:38:04.814Z,16.20
2018-03-08T13:40:31.349Z,15.10
2018-03-08T13:42:57.893Z,14.30
2018-03-08T13:45:24.432Z,13.90
2018-03-08T13:47:51.674Z,13.50
2018-03-08T13:50:18.208Z,13.50
2018-03-08T13:52:44.713Z,13.30
2018-03-08T13:55:11.305Z,13.80
2018-03-08T13:57:37.791Z,15.20
2018-03-08T14:00:04.277Z,16.40
2018-03-08T14:02:30.752Z,17.00
2018-03-08T14:04:57.280Z,17.30
2018-03-08T14:07:23.851Z,17.00
2018-03-08T14:09:50.366Z,15.90
2018-03-08T14:12:16.897Z,14.90
2018-03-08T14:14:44.164Z,13.30
2018-03-08T14:17:12.014Z,13.30
2018-03-08T14:19:38.541Z,13.90
2018-03-08T14:22:05.136Z,14.20
2018-03-08T14:24:31.656Z,13.50
2018-03-08T14:26:58.180Z,12.90
2018-03-08T14:29:24.663Z,12.60
2018-03-08T14:31:51.321Z,12.30
2018-03-08T14:34:17.835Z,12.20
2018-03-08T14:36:44.349Z,11.90
2018-03-08T14:39:10.874Z,11.80
2018-03-08T14:41:37.420Z,11.70
2018-03-08T14:44:03.944Z,12.30
2018-03-08T14:46:30.423Z,12.90
2018-03-08T14:48:56.969Z,13.70
2018-03-08T14:51:24.217Z,13.90
2018-03-08T14:53:51.487Z,14.00
2018-03-08T14:56:18.006Z,14.00
2018-03-08T14:58:44.477Z,13.50
2018-03-08T15:01:10.977Z,13.10
2018-03-08T15:03:38.261Z,12.10
2018-03-08T15:06:04.809Z,12.10
2018-03-08T15:08:31.321Z,11.70
2018-03-08T15:10:57.873Z,11.80
2018-03-08T15:13:24.385Z,11.80
2018-03-08T15:15:50.980Z,11.70
2018-03-08T15:18:17.463Z,11.60
2018-03-08T15:20:44.180Z,11.50
2018-03-08T15:23:10.889Z,11.50
2018-03-08T15:25:37.434Z,11.50
2018-03-08T15:28:04.121Z,11.50
2018-03-08T15:30:30.879Z,11.40
2018-03-08T15:32:57.526Z,11.30
2018-03-08T15:35:24.093Z,11.30
2018-03-08T15:37:50.577Z,11.10
2018-03-08T15:40:18.028Z,11.20
2018-03-08T15:42:44.633Z,11.20
2018-03-08T15:45:11.309Z,11.10
2018-03-08T15:47:37.882Z,11.10
2018-03-08T15:50:04.582Z,10.90
2018-03-08T15:52:31.189Z,10.80
2018-03-08T15:54:57.816Z,10.80
2018-03-08T15:57:25.844Z,10.70
2018-03-08T16:00:08.655Z,10.70
2018-03-08T16:02:38.100Z,10.80
2018-03-08T16:05:04.865Z,10.70
2018-03-08T16:08:14.123Z,10.40
2018-03-08T16:10:40.810Z,10.40
2018-03-08T16:13:07.559Z,10.50
2018-03-08T16:15:34.196Z,10.40
2018-03-08T16:18:00.886Z,10.30
2018-03-08T16:20:27.581Z,10.10
2018-03-08T16:22:54.319Z,10.00
2018-03-08T16:25:20.924Z,10.00
2018-03-08T16:27:47.698Z,9.80
2018-03-08T16:30:14.347Z,9.60
2018-03-08T16:32:40.975Z,9.50
2018-03-08T16:35:07.654Z,9.30
2018-03-08T16:37:35.502Z,9.00
2018-03-08T16:40:02.167Z,9.00
2018-03-08T16:42:29.004Z,8.90
2018-03-08T16:44:55.699Z,8.70
2018-03-08T16:47:22.442Z,8.50
2018-03-08T16:49:49.152Z,8.30
2018-03-08T16:52:15.821Z,8.10
2018-03-08T16:54:42.458Z,7.90
2018-03-08T16:57:12.711Z,7.70
2018-03-08T16:59:44.778Z,7.50
2018-03-08T17:02:11.397Z,7.40
2018-03-08T17:04:38.010Z,7.30
2018-03-08T17:07:04.665Z,7.20
2018-03-08T17:09:31.327Z,7.00
2018-03-08T17:11:58.642Z,6.90
2018-03-08T17:14:25.875Z,6.70
2018-03-08T17:16:52.509Z,6.70
2018-03-08T17:19:19.217Z,6.60
2018-03-08T17:21:46.468Z,6.40
2018-03-08T17:24:14.398Z,6.30
2018-03-08T17:26:40.924Z,6.30
2018-03-08T17:29:07.422Z,6.30
2018-03-08T17:31:33.929Z,6.20
2018-03-08T17:34:00.443Z,6.10
2018-03-08T17:36:26.962Z,6.00
2018-03-08T17:38:53.811Z,5.90
2018-03-08T17:41:23.198Z,5.80
2018-03-08T17:43:49.721Z,5.80
2018-03-08T17:46:16.291Z,5.60
2018-03-08T17:48:42.997Z,5.60
2018-03-08T17:51:10.123Z,5.60
2018-03-08T17:53:37.984Z,5.60
2018-03-08T17:56:04.511Z,5.40
2018-03-08T17:58:31.058Z,5.50
2018-03-08T18:00:57.887Z,5.30
2018-03-08T18:03:25.220Z,5.20
2018-03-08T18:05:51.756Z,5.20
2018-03-08T18:08:18.427Z,5.00
2018-03-08T18:10:45.238Z,5.00
2018-03-08T18:13:13.821Z,4.80
2018-03-08T18:15:40.602Z,4.90
2018-03-08T18:18:07.107Z,4.90
2018-03-08T18:20:33.620Z,4.80
2018-03-08T18:23:01.331Z,4.80
2018-03-08T18:25:28.778Z,4.80
2018-03-08T18:27:55.282Z,4.80
2018-03-08T18:30:21.935Z,4.80
2018-03-08T18:32:48.580Z,4.70
2018-03-08T18:35:15.115Z,4.70
2018-03-08T18:37:41.714Z,4.70
2018-03-08T18:40:08.321Z,4.60
2018-03-08T18:42:35.545Z,4.50
2018-03-08T18:45:02.021Z,4.50
2018-03-08T18:47:28.544Z,4.40
2018-03-08T18:49:55.841Z,4.20
2018-03-08T18:52:22.348Z,4.20
2018-03-08T18:54:48.833Z,4.30
2018-03-08T18:57:16.037Z,4.30
2018-03-08T18:59:42.592Z,4.30
2018-03-08T19:02:09.368Z,4.20
2018-03-08T19:04:35.914Z,4.20
2018-03-08T19:07:02.414Z,4.10
2018-03-08T19:09:28.918Z,4.00
2018-03-08T19:11:55.443Z,4.10
2018-03-08T19:14:22.668Z,4.10
2018-03-08T19:16:49.150Z,4.10
2018-03-08T19:19:15.618Z,4.10
2018-03-08T19:21:42.144Z,4.00
2018-03-08T19:24:08.650Z,4.00
2018-03-08T19:26:35.238Z,3.90
2018-03-08T19:29:01.747Z,3.90
2018-03-08T19:31:28.244Z,3.80
2018-03-08T19:33:54.755Z,3.70
2018-03-08T19:36:22.002Z,3.70
2018-03-08T19:38:48.526Z,3.70
2018-03-08T19:41:15.041Z,3.70
2018-03-08T19:43:41.558Z,3.80
2018-03-08T19:46:08.115Z,3.70
2018-03-08T19:48:34.593Z,3.60
2018-03-08T19:51:01.212Z,3.60
2018-03-08T19:53:27.699Z,3.60
2018-03-08T19:55:54.204Z,3.50
2018-03-08T19:58:21.469Z,3.30
2018-03-08T20:00:47.971Z,3.30
2018-03-08T20:03:14.488Z,3.30
2018-03-08T20:05:40.987Z,3.40
2018-03-08T20:08:07.493Z,3.40
2018-03-08T20:10:34.715Z,3.20
2018-03-08T20:13:01.263Z,3.20
2018-03-08T20:15:27.766Z,3.20
2018-03-08T20:17:54.251Z,3.20
2018-03-08T20:20:21.522Z,3.10
2018-03-08T20:22:48.043Z,3.10
2018-03-08T20:25:15.265Z,3.20
2018-03-08T20:27:41.830Z,3.20
2018-03-08T20:30:09.150Z,3.10
2018-03-08T20:32:35.633Z,3.10
2018-03-08T20:35:02.857Z,3.10
2018-03-08T20:37:30.097Z,2.90
2018-03-08T20:39:56.728Z,2.90
2018-03-08T20:42:23.239Z,3.00
2018-03-08T20:44:49.791Z,3.10
2018-03-08T20:47:16.289Z,3.10
2018-03-08T20:49:42.792Z,2.90
2018-03-08T20:52:09.276Z,2.80
2018-03-08T20:54:36.697Z,2.70
2018-03-08T20:57:03.222Z,2.60
2018-03-08T20:59:41.134Z,2.70
2018-03-08T21:02:07.668Z,2.70
2018-03-08T21:04:34.154Z,2.60
2018-03-08T21:07:00.639Z,2.60
2018-03-08T21:09:31.221Z,2.50
2018-03-08T21:11:57.821Z,2.50
2018-03-08T21:14:24.324Z,2.40
2018-03-08T21:16:50.824Z,2.30
2018-03-08T21:19:22.760Z,2.40
2018-03-08T21:21:49.293Z,2.30
2018-03-08T21:24:15.882Z,2.40
2018-03-08T21:26:42.401Z,2.40
2018-03-08T21:29:08.904Z,2.30
2018-03-08T21:31:35.439Z,2.20
2018-03-08T21:34:01.942Z,2.10
2018-03-08T21:36:28.442Z,2.20
2018-03-08T21:38:55.013Z,2.10
2018-03-08T21:41:21.510Z,2.10
2018-03-08T21:43:47.982Z,2.20
2018-03-08T21:46:15.223Z,1.90
2018-03-08T21:48:41.747Z,1.80
2018-03-08T21:51:08.267Z,2.00
2018-03-08T21:53:35.490Z,1.90
2018-03-08T21:56:02.011Z,1.80
2018-03-08T21:58:28.540Z,1.70
2018-03-08T22:00:55.877Z,1.50
2018-03-08T22:03:23.110Z,1.40
2018-03-08T22:05:49.624Z,1.40
2018-03-08T22:08:16.112Z,1.40
2018-03-08T22:10:42.639Z,1.40
2018-03-08T22:13:09.921Z,1.50
2018-03-08T22:15:36.435Z,1.50
2018-03-08T22:18:03.664Z,1.60
2018-03-08T22:20:30.149Z,1.50
2018-03-08T22:22:56.626Z,1.40
2018-03-08T22:25:23.161Z,1.40
2018-03-08T22:27:49.672Z,1.50
2018-03-08T22:30:16.186Z,1.40
2018-03-08T22:32:43.604Z,1.40
2018-03-08T22:35:10.120Z,1.20
2018-03-08T22:37:36.623Z,1.30
2018-03-08T22:40:03.172Z,1.20
2018-03-08T22:42:29.683Z,1.30
2018-03-08T22:44:56.205Z,1.10
2018-03-08T22:47:22.896Z,1.40
2018-03-08T22:49:49.388Z,1.10
2018-03-08T22:52:15.932Z,1.20
2018-03-08T22:54:42.415Z,1.00
2018-03-08T22:57:09.009Z,1.00
2018-03-08T22:59:35.549Z,1.00
2018-03-08T23:02:09.669Z,0.90
2018-03-08T23:04:36.178Z,1.00
2018-03-08T23:07:03.510Z,0.90
2018-03-08T23:09:30.768Z,0.80
2018-03-08T23:11:57.418Z,0.90
2018-03-08T23:14:23.951Z,0.90
2018-03-08T23:16:50.480Z,0.80
2018-03-08T23:19:16.969Z,0.80
2018-03-08T23:21:43.506Z,0.70
2018-03-08T23:24:10.743Z,0.60
2018-03-08T23:26:37.311Z,0.60
2018-03-08T23:29:03.823Z,0.90
2018-03-08T23:31:31.046Z,0.60
2018-03-08T23:33:57.541Z,0.50
2018-03-08T23:36:24.067Z,0.60
2018-03-08T23:38:50.562Z,0.50
2018-03-08T23:41:17.123Z,0.50
2018-03-08T23:43:43.599Z,0.50
2018-03-08T23:46:10.103Z,0.50
2018-03-08T23:48:36.596Z,0.30
2018-03-08T23:51:03.149Z,0.40
2018-03-08T23:53:29.679Z,0.30
2018-03-08T23:55:56.185Z,0.20
2018-03-08T23:58:22.673Z,0.20
